Météo Nord-Pas-de-Calais   La météo au plus près de chez vous

Station météorologique

Observations météo à Bergerac (24037)

24037005 49 m Dernier relevé à 23:42
19.2°C
Humidité 50 % Vent 7.6 km/h 1021.2 hPa

Journée consultée

Mardi 1 Septembre 2026

Synthèse de la journée

Périodes de référence en UTC

Température maximale

28.8°C

à 16:00

06h 06h

Température minimale

11°C

à 06:54

18h 18h

Rafale maximale

23 km/h

à 17:12

00h 00h

Précipitations

0 mm

Cumul quotidien

06h 06h

Ensoleillement

8h 41 mins

Durée quotidienne

00h 00h

Graphiques de la journée

Heure locale Réduire

Données détaillées

Relevés météo

Pas de 6 minutes Afficher les relevés infra-horaires
Relevés météo détaillés à Bergerac pour le Mardi 1 Septembre 2026
Heure Température °C Point de rosée °C Humidité % Vent moyen (raf.), km/h Précipitations mm Température à 10 cm °C Température à 20 cm °C Température à 50 cm °C Visibilité m État du sol   Hauteur neige cm Ensoleillement min Rayonnement global W/m² Pression hPa Nébulosité Octas
23:42 19.2 °C 11.7 °C 62 % 4 km/h (6 km/h) 0 mm0 mm 24 °C 23.8 °C 22.3 °C 60000 m 0   0 cm 0 min 0 W/m² 1021.2 hPa
23:36 19.9 °C 11.9 °C 60 % 4 km/h (6 km/h) 0 mm0 mm 24 °C 23.8 °C 22.3 °C 60000 m 0   0 cm 0 min 0 W/m² 1021.1 hPa
23:30 20.5 °C 11.7 °C 57 % 3 km/h (6 km/h) 0 mm0 mm 24.1 °C 23.8 °C 22.2 °C 60000 m 0   0 cm 0 min 0 W/m² 1021.1 hPa
23:24 20.9 °C 11.5 °C 55 % 4 km/h (7 km/h) 0 mm0 mm 24.2 °C 23.8 °C 22.2 °C 60000 m 0   0 cm 0 min 0 W/m² 1021.1 hPa
23:18 21.3 °C 11.3 °C 53 % 4 km/h (7 km/h) 0 mm0 mm 24.2 °C 23.9 °C 22.2 °C 60000 m 0   0 cm 0 min 0 W/m² 1021.1 hPa
23:12 21.7 °C 11.4 °C 52 % 4 km/h (8 km/h) 0 mm0 mm 24.2 °C 23.9 °C 22.2 °C 60000 m 0   0 cm 0 min 0 W/m² 1021.2 hPa
23:06 21.9 °C 11.6 °C 52 % 5 km/h (8 km/h) 0 mm0 mm 24.3 °C 23.9 °C 22.2 °C 60000 m 0   0 cm 0 min 0 W/m² 1021.2 hPa
23:00 22.1 °C 11.5 °C 51 % 4 km/h (6 km/h) 0 mm0 mm 24.3 °C 23.9 °C 22.2 °C 60000 m 0   0 cm 0 min 0 W/m² 1021.2 hPa 8 Octas
22:54 22.4 °C 11.8 °C 51 % 6 km/h (10 km/h) 0 mm0 mm 24.4 °C 23.9 °C 22.2 °C 60000 m 0   0 cm 0 min 0 W/m² 1021.2 hPa
22:48 22.5 °C 11.9 °C 51 % 7 km/h (10 km/h) 0 mm0 mm 24.4 °C 23.9 °C 22.2 °C 60000 m 0   0 cm 0 min 0 W/m² 1021.2 hPa
22:42 22.6 °C 11.6 °C 50 % 8 km/h (13 km/h) 0 mm0 mm 24.5 °C 23.9 °C 22.2 °C 60000 m 0   0 cm 0 min 0 W/m² 1021.2 hPa
22:36 22.6 °C 11.9 °C 51 % 8 km/h (13 km/h) 0 mm0 mm 24.5 °C 23.9 °C 22.2 °C 60000 m 0   0 cm 0 min 0 W/m² 1021.2 hPa
22:30 22.6 °C 11.9 °C 51 % 6 km/h (10 km/h) 0 mm0 mm 24.6 °C 23.9 °C 22.2 °C 60000 m 0   0 cm 0 min 0 W/m² 1021.2 hPa
22:24 22.7 °C 12 °C 51 % 6 km/h (10 km/h) 0 mm0 mm 24.6 °C 24 °C 22.2 °C 60000 m 0   0 cm 0 min 0 W/m² 1021.2 hPa
22:18 22.7 °C 11.7 °C 50 % 5 km/h (8 km/h) 0 mm0 mm 24.7 °C 24 °C 22.2 °C 60000 m 0   0 cm 0 min 0 W/m² 1021.2 hPa
22:12 22.6 °C 11.9 °C 51 % 6 km/h (9 km/h) 0 mm0 mm 24.7 °C 23.9 °C 22.2 °C 60000 m 0   0 cm 0 min 0 W/m² 1021.2 hPa
22:06 22.6 °C 11.9 °C 51 % 7 km/h (10 km/h) 0 mm0 mm 24.8 °C 24 °C 22.2 °C 60000 m 0   0 cm 0 min 0 W/m² 1021.1 hPa
22:00 22.6 °C 11.6 °C 50 % 7 km/h (9 km/h) 0 mm0 mm 24.9 °C 24 °C 22.2 °C 60000 m 0   0 cm 0 min 0 W/m² 1021 hPa 6 Octas
21:54 22.5 °C 11.6 °C 50 % 6 km/h (8 km/h) 0 mm0 mm 24.9 °C 24 °C 22.1 °C 60000 m 0   0 cm 0 min 0 W/m² 1020.9 hPa
21:48 22.4 °C 11.5 °C 50 % 7 km/h (13 km/h) 0 mm0 mm 25 °C 23.9 °C 22.1 °C 60000 m 0   0 cm 0 min 0 W/m² 1020.8 hPa
21:42 22.5 °C 11.6 °C 50 % 5 km/h (13 km/h) 0 mm0 mm 25.1 °C 23.9 °C 22.1 °C 60000 m 0   0 cm 0 min 0 W/m² 1020.8 hPa
21:36 22.8 °C 11.5 °C 49 % 5 km/h (10 km/h) 0 mm0 mm 25.1 °C 24 °C 22.1 °C 60000 m 0   0 cm 0 min 0 W/m² 1020.8 hPa
21:30 23.1 °C 11.8 °C 49 % 6 km/h (10 km/h) 0 mm0 mm 25.2 °C 24 °C 22.1 °C 60000 m 0   0 cm 0 min 0 W/m² 1020.7 hPa
21:24 23.1 °C 11.5 °C 48 % 6 km/h (10 km/h) 0 mm0 mm 25.3 °C 24 °C 22.1 °C 60000 m 0   0 cm 0 min 0 W/m² 1020.7 hPa
21:18 23 °C 11.7 °C 49 % 7 km/h (10 km/h) 0 mm0 mm 25.3 °C 24 °C 22.1 °C 12250 m 0   0 cm 0 min 0 W/m² 1020.6 hPa
21:12 23.3 °C 11.7 °C 48 % 6 km/h (12 km/h) 0 mm0 mm 25.4 °C 24 °C 22.1 °C 10110 m 0   0 cm 0 min 0 W/m² 1020.5 hPa
21:06 23.5 °C 11.9 °C 48 % 6 km/h (12 km/h) 0 mm0 mm 25.5 °C 24 °C 22.1 °C 60000 m 0   0 cm 0 min 0 W/m² 1020.4 hPa
21:00 23.5 °C 11.5 °C 47 % 7 km/h (9 km/h) 0 mm0 mm 25.5 °C 23.9 °C 22.1 °C 17060 m 0   0 cm 0 min 0 W/m² 1020.4 hPa
20:54 23.8 °C 11.8 °C 47 % 8 km/h (10 km/h) 0 mm0 mm 25.6 °C 24 °C 22.1 °C 60000 m 0   0 cm 0 min 0 W/m² 1020.2 hPa
20:48 24 °C 11.7 °C 46 % 8 km/h (10 km/h) 0 mm0 mm 25.7 °C 23.9 °C 22.1 °C 60000 m 0   0 cm 0 min 0 W/m² 1020.2 hPa
20:42 24.3 °C 11.6 °C 45 % 8 km/h (11 km/h) 0 mm0 mm 25.7 °C 23.9 °C 22.1 °C 60000 m 0   0 cm 0 min 0 W/m² 1020.2 hPa
20:36 24.7 °C 12 °C 45 % 8 km/h (13 km/h) 0 mm0 mm 25.8 °C 23.9 °C 22.1 °C 60000 m 0   0 cm 0 min 0 W/m² 1020 hPa
20:30 25 °C 11.9 °C 44 % 8 km/h (14 km/h) 0 mm0 mm 25.8 °C 23.9 °C 22.1 °C 60000 m 0   0 cm 0 min 0 W/m² 1020 hPa
20:24 25.3 °C 12.2 °C 44 % 10 km/h (17 km/h) 0 mm0 mm 25.9 °C 23.9 °C 22 °C 60000 m 0   0 cm 0 min 0 W/m² 1020 hPa
20:18 25.6 °C 12.1 °C 43 % 10 km/h (17 km/h) 0 mm0 mm 25.9 °C 23.9 °C 22.1 °C 60000 m 0   0 cm 0 min 0 W/m² 1020 hPa
20:12 25.8 °C 12.3 °C 43 % 10 km/h (17 km/h) 0 mm0 mm 25.9 °C 23.9 °C 22 °C 60000 m 0   0 cm 4 min 8.6 W/m² 1019.9 hPa
20:06 25.9 °C 12.4 °C 43 % 12 km/h (17 km/h) 0 mm0 mm 26 °C 23.9 °C 22 °C 60000 m 0   0 cm 6 min 15.3 W/m² 1019.9 hPa
20:00 26.1 °C 12.2 °C 42 % 12 km/h (17 km/h) 0 mm0 mm 26 °C 23.8 °C 22 °C 60000 m 0   0 cm 6 min 21.5 W/m² 1019.8 hPa 8 Octas
19:54 26.2 °C 12.3 °C 42 % 12 km/h (15 km/h) 0 mm0 mm 26.1 °C 23.8 °C 22 °C 60000 m 0   0 cm 6 min 21.4 W/m² 1019.8 hPa
19:48 26.3 °C 12 °C 41 % 11 km/h (15 km/h) 0 mm0 mm 26.1 °C 23.8 °C 22 °C 60000 m 0   0 cm 5 min 23.5 W/m² 1019.8 hPa
19:42 26.4 °C 12.5 °C 42 % 12 km/h (16 km/h) 0 mm0 mm 26.2 °C 23.8 °C 22 °C 60000 m 0   0 cm 0 min 23.9 W/m² 1019.8 hPa
19:36 26.4 °C 12.1 °C 41 % 12 km/h (17 km/h) 0 mm0 mm 26.2 °C 23.8 °C 22 °C 60000 m 0   0 cm 0 min 29.2 W/m² 1019.8 hPa
19:30 26.7 °C 12.4 °C 41 % 12 km/h (17 km/h) 0 mm0 mm 26.3 °C 23.8 °C 22 °C 60000 m 0   0 cm 0 min 32.8 W/m² 1019.8 hPa
19:24 26.9 °C 12.2 °C 40 % 13 km/h (22 km/h) 0 mm0 mm 26.3 °C 23.7 °C 21.9 °C 60000 m 0   0 cm 5 min 50.7 W/m² 1019.7 hPa
19:18 27.2 °C 12.8 °C 41 % 14 km/h (20 km/h) 0 mm0 mm 26.4 °C 23.7 °C 22 °C 60000 m 0   0 cm 6 min 67.7 W/m² 1019.7 hPa
19:12 27.2 °C 12.4 °C 40 % 13 km/h (20 km/h) 0 mm0 mm 26.4 °C 23.7 °C 22 °C 60000 m 0   0 cm 6 min 64.5 W/m² 1019.6 hPa
19:06 27 °C 12.6 °C 41 % 12 km/h (17 km/h) 0 mm0 mm 26.4 °C 23.6 °C 22 °C 60000 m 0   0 cm 6 min 62.3 W/m² 1019.6 hPa
19:00 27.1 °C 12.3 °C 40 % 12 km/h (18 km/h) 0 mm0 mm 26.4 °C 23.6 °C 22 °C 60000 m 0   0 cm 3 min 57.7 W/m² 1019.5 hPa
18:54 27.1 °C 12.7 °C 41 % 12 km/h (18 km/h) 0 mm0 mm 26.5 °C 23.6 °C 21.9 °C 60000 m 0   0 cm 0 min 47.5 W/m² 1019.5 hPa
18:48 27.3 °C 12.5 °C 40 % 13 km/h (20 km/h) 0 mm0 mm 26.5 °C 23.6 °C 22 °C 60000 m 0   0 cm 0 min 55.3 W/m² 1019.4 hPa
18:42 27.7 °C 12.9 °C 40 % 12 km/h (18 km/h) 0 mm0 mm 26.5 °C 23.5 °C 21.9 °C 60000 m 0   0 cm 6 min 86.7 W/m² 1019.4 hPa
18:36 27.5 °C 12.7 °C 40 % 8 km/h (16 km/h) 0 mm0 mm 26.5 °C 23.5 °C 22 °C 60000 m 0   0 cm 5 min 85.8 W/m² 1019.4 hPa
18:30 27.5 °C 13.4 °C 42 % 8 km/h (13 km/h) 0 mm0 mm 26.6 °C 23.4 °C 21.9 °C 60000 m 0   0 cm 1 min 69 W/m² 1019.4 hPa
18:24 27.7 °C 13.2 °C 41 % 10 km/h (14 km/h) 0 mm0 mm 26.6 °C 23.4 °C 21.9 °C 60000 m 0   0 cm 3 min 83.6 W/m² 1019.4 hPa
18:18 27.5 °C 13.4 °C 42 % 12 km/h (19 km/h) 0 mm0 mm 26.6 °C 23.4 °C 21.9 °C 60000 m 0   0 cm 3 min 84.8 W/m² 1019.4 hPa
18:12 27.7 °C 13.2 °C 41 % 10 km/h (19 km/h) 0 mm0 mm 26.6 °C 23.3 °C 21.9 °C 60000 m 0   0 cm 0 min 74.7 W/m² 1019.3 hPa
18:06 27.8 °C 13.3 °C 41 % 10 km/h (17 km/h) 0 mm0 mm 26.6 °C 23.3 °C 21.9 °C 60000 m 0   0 cm 5 min 115.1 W/m² 1019.4 hPa
18:00 27.9 °C 13.4 °C 41 % 12 km/h (18 km/h) 0 mm0 mm 26.6 °C 23.3 °C 21.9 °C 60000 m 0   0 cm 6 min 127.4 W/m² 1019.5 hPa
17:54 27.8 °C 13 °C 40 % 11 km/h (19 km/h) 0 mm0 mm 26.6 °C 23.3 °C 21.9 °C 60000 m 0   0 cm 6 min 129 W/m² 1019.5 hPa
17:48 28 °C 13.5 °C 41 % 7 km/h (19 km/h) 0 mm0 mm 26.6 °C 23.2 °C 21.9 °C 60000 m 0   0 cm 4 min 116 W/m² 1019.4 hPa
17:42 28.1 °C 13.2 °C 40 % 9 km/h (17 km/h) 0 mm0 mm 26.6 °C 23.2 °C 21.9 °C 60000 m 0   0 cm 6 min 147.2 W/m² 1019.5 hPa
17:36 28.1 °C 13.6 °C 41 % 12 km/h (20 km/h) 0 mm0 mm 26.6 °C 23.2 °C 21.9 °C 60000 m 0   0 cm 6 min 146.1 W/m² 1019.5 hPa
17:30 28.1 °C 13.6 °C 41 % 12 km/h (20 km/h) 0 mm0 mm 26.5 °C 23.1 °C 21.9 °C 60000 m 0   0 cm 6 min 178.4 W/m² 1019.4 hPa
17:24 28.1 °C 13.2 °C 40 % 9 km/h (16 km/h) 0 mm0 mm 26.5 °C 23.1 °C 21.9 °C 60000 m 0   0 cm 5 min 164.2 W/m² 1019.4 hPa
17:18 28 °C 13.5 °C 41 % 12 km/h (23 km/h) 0 mm0 mm 26.5 °C 23 °C 21.9 °C 60000 m 0   0 cm 3 min 153 W/m² 1019.5 hPa
17:12 28.1 °C 13.6 °C 41 % 11 km/h (23 km/h) 0 mm0 mm 26.5 °C 23 °C 21.9 °C 60000 m 0   0 cm 6 min 164.3 W/m² 1019.5 hPa
17:06 27.9 °C 13 °C 40 % 10 km/h (15 km/h) 0 mm0 mm 26.4 °C 22.9 °C 21.9 °C 60000 m 0   0 cm 5 min 146.4 W/m² 1019.6 hPa
17:00 28.1 °C 13.6 °C 41 % 9 km/h (15 km/h) 0 mm0 mm 26.4 °C 22.9 °C 21.9 °C 60000 m 0   0 cm 0 min 115.1 W/m² 1019.6 hPa 7 Octas
16:54 28 °C 13.5 °C 41 % 4 km/h (14 km/h) 0 mm0 mm 26.4 °C 22.9 °C 21.9 °C 60000 m 0   0 cm 4 min 153 W/m² 1019.6 hPa
16:48 28 °C 13.1 °C 40 % 7 km/h (18 km/h) 0 mm0 mm 26.3 °C 22.8 °C 21.9 °C 60000 m 0   0 cm 0 min 111.1 W/m² 1019.6 hPa
16:42 28.4 °C 13.1 °C 39 % 10 km/h (22 km/h) 0 mm0 mm 26.2 °C 22.7 °C 21.9 °C 19910 m 0   0 cm 4 min 184.4 W/m² 1019.5 hPa
16:36 28.5 °C 13.6 °C 40 % 9 km/h (22 km/h) 0 mm0 mm 26.1 °C 22.7 °C 21.9 °C 19910 m 0   0 cm 6 min 211.6 W/m² 1019.6 hPa
16:30 28.2 °C 13.3 °C 40 % 5 km/h (11 km/h) 0 mm0 mm 26.1 °C 22.7 °C 21.9 °C 60000 m 0   0 cm 4 min 190.4 W/m² 1019.7 hPa
16:24 27.9 °C 13 °C 40 % 11 km/h (19 km/h) 0 mm0 mm 25.9 °C 22.6 °C 21.9 °C 60000 m 0   0 cm 0 min 134.8 W/m² 1019.7 hPa
16:18 27.9 °C 13 °C 40 % 12 km/h (21 km/h) 0 mm0 mm 25.9 °C 22.5 °C 21.9 °C 60000 m 0   0 cm 3 min 170.1 W/m² 1019.8 hPa
16:12 28.5 °C 13.6 °C 40 % 9 km/h (19 km/h) 0 mm0 mm 25.8 °C 22.5 °C 21.9 °C 60000 m 0   0 cm 6 min 214.1 W/m² 1019.7 hPa
16:06 28.4 °C 13.1 °C 39 % 6 km/h (19 km/h) 0 mm0 mm 25.7 °C 22.5 °C 21.9 °C 60000 m 0   0 cm 6 min 239.7 W/m² 1019.7 hPa
16:00 28.4 °C 13.1 °C 39 % 8 km/h (18 km/h) 0 mm0 mm 25.7 °C 22.4 °C 21.9 °C 60000 m 0   0 cm 6 min 253 W/m² 1019.7 hPa
15:54 28.3 °C 13 °C 39 % 10 km/h (20 km/h) 0 mm0 mm 25.5 °C 22.4 °C 21.9 °C 60000 m 0   0 cm 6 min 256.5 W/m² 1019.8 hPa
15:48 28.4 °C 13.5 °C 40 % 10 km/h (21 km/h) 0 mm0 mm 25.5 °C 22.4 °C 21.9 °C 60000 m 0   0 cm 6 min 272.8 W/m² 1019.8 hPa
15:42 28.6 °C 13.3 °C 39 % 12 km/h (21 km/h) 0 mm0 mm 25.4 °C 22.3 °C 21.9 °C 60000 m 0   0 cm 6 min 293.2 W/m² 1019.9 hPa
15:36 28.1 °C 13.6 °C 41 % 8 km/h (20 km/h) 0 mm0 mm 25.4 °C 22.3 °C 21.9 °C 60000 m 0   0 cm 6 min 260 W/m² 1020.1 hPa
15:30 27.6 °C 13.5 °C 42 % 8 km/h (15 km/h) 0 mm0 mm 25.2 °C 22.2 °C 21.9 °C 60000 m 0   0 cm 4 min 219 W/m² 1020.1 hPa
15:24 27.9 °C 13.8 °C 42 % 5 km/h (15 km/h) 0 mm0 mm 25.1 °C 22.2 °C 21.9 °C 60000 m 0   0 cm 0 min 131.8 W/m² 1020.3 hPa
15:18 27.6 °C 13.5 °C 42 % 7 km/h (19 km/h) 0 mm0 mm 25 °C 22.2 °C 21.9 °C 60000 m 0   0 cm 0 min 146.9 W/m² 1020.4 hPa
15:12 27.7 °C 13.2 °C 41 % 9 km/h (19 km/h) 0 mm0 mm 24.9 °C 22.1 °C 21.9 °C 60000 m 0   0 cm 1 min 183.5 W/m² 1020.4 hPa
15:06 28 °C 13.9 °C 42 % 9 km/h (19 km/h) 0 mm0 mm 24.8 °C 22.1 °C 21.9 °C 60000 m 0   0 cm 6 min 281.4 W/m² 1020.5 hPa
15:00 27.4 °C 13.3 °C 42 % 11 km/h (19 km/h) 0 mm0 mm 24.7 °C 22 °C 21.9 °C 60000 m 0   0 cm 4 min 235.7 W/m² 1020.5 hPa
14:54 27.3 °C 13.6 °C 43 % 12 km/h (19 km/h) 0 mm0 mm 24.6 °C 22 °C 21.9 °C 60000 m 0   0 cm 4 min 227.3 W/m² 1020.6 hPa
14:48 27.7 °C 13.6 °C 42 % 12 km/h (19 km/h) 0 mm0 mm 24.5 °C 21.9 °C 22 °C 60000 m 0   0 cm 5 min 238.4 W/m² 1020.7 hPa
14:42 27.7 °C 13.6 °C 42 % 11 km/h (19 km/h) 0 mm0 mm 24.3 °C 21.9 °C 21.9 °C 18340 m 0   0 cm 5 min 263.2 W/m² 1020.8 hPa
14:36 27.6 °C 13.5 °C 42 % 9 km/h (19 km/h) 0 mm0 mm 24.2 °C 21.8 °C 21.9 °C 60000 m 0   0 cm 6 min 269.6 W/m² 1020.9 hPa
14:30 27.5 °C 13.4 °C 42 % 8 km/h (21 km/h) 0 mm0 mm 24.1 °C 21.8 °C 22 °C 60000 m 0   0 cm 6 min 270.9 W/m² 1020.9 hPa
14:24 27.6 °C 13.5 °C 42 % 8 km/h (21 km/h) 0 mm0 mm 24 °C 21.8 °C 22 °C 60000 m 0   0 cm 6 min 284.4 W/m² 1021 hPa
14:18 27.3 °C 13.6 °C 43 % 10 km/h (21 km/h) 0 mm0 mm 23.9 °C 21.8 °C 22 °C 60000 m 0   0 cm 6 min 244.5 W/m² 1021 hPa
14:12 27.2 °C 13.5 °C 43 % 14 km/h (21 km/h) 0 mm0 mm 23.8 °C 21.7 °C 22 °C 60000 m 0   0 cm 6 min 269.2 W/m² 1021.1 hPa
14:06 27.2 °C 13.2 °C 42 % 10 km/h (19 km/h) 0 mm0 mm 23.6 °C 21.7 °C 22 °C 60000 m 0   0 cm 5 min 262.7 W/m² 1021.1 hPa
14:00 27.5 °C 13.4 °C 42 % 6 km/h (15 km/h) 0 mm0 mm 23.5 °C 21.7 °C 22 °C 60000 m 0   0 cm 6 min 270.3 W/m² 1021.2 hPa 6 Octas
13:54 27.3 °C 14 °C 44 % 5 km/h (14 km/h) 0 mm0 mm 23.4 °C 21.6 °C 22 °C 60000 m 0   0 cm 6 min 260.7 W/m² 1021.1 hPa
13:48 26.6 °C 13.3 °C 44 % 7 km/h (15 km/h) 0 mm0 mm 23.3 °C 21.6 °C 22.1 °C 60000 m 0   0 cm 2 min 198.9 W/m² 1021.2 hPa
13:42 26.3 °C 13.1 °C 44 % 6 km/h (13 km/h) 0 mm0 mm 23.2 °C 21.6 °C 22 °C 60000 m 0   0 cm 2 min 187.6 W/m² 1021.3 hPa
13:36 26.4 °C 12.8 °C 43 % 6 km/h (17 km/h) 0 mm0 mm 23 °C 21.6 °C 22.1 °C 60000 m 0   0 cm 2 min 184.9 W/m² 1021.3 hPa
13:30 26.7 °C 13.4 °C 44 % 7 km/h (17 km/h) 0 mm0 mm 22.9 °C 21.5 °C 22 °C 60000 m 0   0 cm 6 min 291.4 W/m² 1021.4 hPa
13:24 26.4 °C 13.2 °C 44 % 9 km/h (21 km/h) 0 mm0 mm 22.8 °C 21.5 °C 22 °C 60000 m 0   0 cm 6 min 296.3 W/m² 1021.4 hPa
13:18 26.3 °C 13.8 °C 46 % 7 km/h (21 km/h) 0 mm0 mm 22.7 °C 21.5 °C 22.1 °C 60000 m 0   0 cm 6 min 266.4 W/m² 1021.4 hPa
13:12 25.9 °C 13.1 °C 45 % 7 km/h (17 km/h) 0 mm0 mm 22.6 °C 21.5 °C 22.1 °C 60000 m 0   0 cm 3 min 195.3 W/m² 1021.5 hPa
13:06 26.1 °C 12.9 °C 44 % 8 km/h (20 km/h) 0 mm0 mm 22.5 °C 21.5 °C 22.1 °C 60000 m 0   0 cm 6 min 279.6 W/m² 1021.6 hPa
13:00 25.6 °C 13.1 °C 46 % 10 km/h (20 km/h) 0 mm0 mm 22.3 °C 21.5 °C 22.1 °C 19960 m 0   0 cm 6 min 243.1 W/m² 1021.6 hPa
12:54 25.3 °C 12.8 °C 46 % 9 km/h (15 km/h) 0 mm0 mm 22.2 °C 21.4 °C 22.1 °C 19960 m 0   0 cm 2 min 172.1 W/m² 1021.7 hPa
12:48 25.6 °C 12.8 °C 45 % 8 km/h (15 km/h) 0 mm0 mm 22.1 °C 21.4 °C 22.1 °C 60000 m 0   0 cm 0 min 133.4 W/m² 1021.8 hPa
12:42 25.6 °C 13.1 °C 46 % 8 km/h (21 km/h) 0 mm0 mm 21.9 °C 21.4 °C 22.1 °C 60000 m 0   0 cm 3 min 192.6 W/m² 1021.8 hPa
12:36 25.8 °C 13.3 °C 46 % 8 km/h (21 km/h) 0 mm0 mm 21.8 °C 21.4 °C 22.1 °C 60000 m 0   0 cm 4 min 197.4 W/m² 1021.8 hPa
12:30 25.9 °C 13.7 °C 47 % 9 km/h (14 km/h) 0 mm0 mm 21.7 °C 21.4 °C 22.1 °C 60000 m 0   0 cm 6 min 234.3 W/m² 1021.8 hPa
12:24 26 °C 13.8 °C 47 % 7 km/h (13 km/h) 0 mm0 mm 21.6 °C 21.4 °C 22.1 °C 60000 m 0   0 cm 6 min 317.8 W/m² 1021.9 hPa
12:18 25.3 °C 13.5 °C 48 % 6 km/h (15 km/h) 0 mm0 mm 21.4 °C 21.4 °C 22.1 °C 60000 m 0   0 cm 6 min 261 W/m² 1021.9 hPa
12:12 25.1 °C 13.6 °C 49 % 6 km/h (14 km/h) 0 mm0 mm 21.3 °C 21.4 °C 22.2 °C 60000 m 0   0 cm 5 min 208.4 W/m² 1021.9 hPa
12:06 25.1 °C 13.6 °C 49 % 7 km/h (14 km/h) 0 mm0 mm 21.2 °C 21.4 °C 22.2 °C 60000 m 0   0 cm 5 min 223.5 W/m² 1021.9 hPa
12:00 25.1 °C 13.9 °C 50 % 6 km/h (12 km/h) 0 mm0 mm 21.1 °C 21.3 °C 22.1 °C 60000 m 0   0 cm 6 min 266.9 W/m² 1021.9 hPa
11:54 24.9 °C 13.8 °C 50 % 5 km/h (10 km/h) 0 mm0 mm 21 °C 21.3 °C 22.1 °C 60000 m 0   0 cm 6 min 260.8 W/m² 1022 hPa
11:48 24.5 °C 14.3 °C 53 % 4 km/h (8 km/h) 0 mm0 mm 21 °C 21.3 °C 22.1 °C 60000 m 0   0 cm 6 min 225.2 W/m² 1021.9 hPa
11:42 24.1 °C 14.5 °C 55 % 5 km/h (9 km/h) 0 mm0 mm 20.8 °C 21.3 °C 22.1 °C 60000 m 0   0 cm 4 min 194 W/m² 1022 hPa
11:36 24 °C 14.7 °C 56 % 6 km/h (10 km/h) 0 mm0 mm 20.8 °C 21.4 °C 22.2 °C 60000 m 0   0 cm 6 min 236.4 W/m² 1022.1 hPa
11:30 23.4 °C 14.7 °C 58 % 5 km/h (10 km/h) 0 mm0 mm 20.7 °C 21.4 °C 22.2 °C 60000 m 0   0 cm 6 min 207 W/m² 1022.2 hPa
11:24 22.9 °C 15 °C 61 % 5 km/h (10 km/h) 0 mm0 mm 20.6 °C 21.4 °C 22.2 °C 60000 m 0   0 cm 6 min 204.1 W/m² 1022.2 hPa
11:18 22.6 °C 14.9 °C 62 % 5 km/h (10 km/h) 0 mm0 mm 20.5 °C 21.4 °C 22.2 °C 56600 m 0   0 cm 3 min 165.1 W/m² 1022.2 hPa
11:12 22.1 °C 14.7 °C 63 % 5 km/h (10 km/h) 0 mm0 mm 20.5 °C 21.4 °C 22.2 °C 60000 m 0   0 cm 3 min 157 W/m² 1022.3 hPa
11:06 21.8 °C 14.7 °C 64 % 5 km/h (8 km/h) 0 mm0 mm 20.4 °C 21.4 °C 22.2 °C 60000 m 0   0 cm 0 min 122.9 W/m² 1022.3 hPa
11:00 21.7 °C 14.6 °C 64 % 6 km/h (9 km/h) 0 mm0 mm 20.4 °C 21.4 °C 22.2 °C 60000 m 0   0 cm 5 min 154.8 W/m² 1022.4 hPa
10:54 21.4 °C 14.5 °C 65 % 6 km/h (11 km/h) 0 mm0 mm 20.3 °C 21.4 °C 22.2 °C 60000 m 0   0 cm 0 min 122.7 W/m² 1022.3 hPa
10:48 21.5 °C 14.6 °C 65 % 8 km/h (13 km/h) 0 mm0 mm 20.3 °C 21.4 °C 22.2 °C 60000 m 0   0 cm 5 min 179.7 W/m² 1022.3 hPa
10:42 21.2 °C 14.6 °C 66 % 9 km/h (15 km/h) 0 mm0 mm 20.3 °C 21.4 °C 22.2 °C 60000 m 0   0 cm 3 min 132.8 W/m² 1022.3 hPa
10:36 21 °C 14.6 °C 67 % 9 km/h (15 km/h) 0 mm0 mm 20.2 °C 21.4 °C 22.2 °C 60000 m 0   0 cm 6 min 180.9 W/m² 1022.2 hPa
10:30 20.7 °C 14.8 °C 69 % 6 km/h (10 km/h) 0 mm0 mm 20.2 °C 21.4 °C 22.2 °C 60000 m 0   0 cm 6 min 188.3 W/m² 1022.2 hPa
10:24 20 °C 14.4 °C 70 % 6 km/h (11 km/h) 0 mm0 mm 20.1 °C 21.4 °C 22.2 °C 60000 m 0   0 cm 2 min 115.6 W/m² 1022.2 hPa
10:18 19.7 °C 14.5 °C 72 % 6 km/h (11 km/h) 0 mm0 mm 20.1 °C 21.4 °C 22.3 °C 60000 m 0   0 cm 1 min 103.2 W/m² 1022.3 hPa
10:12 19.6 °C 14.4 °C 72 % 5 km/h (10 km/h) 0 mm0 mm 20.1 °C 21.4 °C 22.2 °C 60000 m 0   0 cm 1 min 93.8 W/m² 1022.3 hPa
10:06 19.5 °C 14.5 °C 73 % 6 km/h (10 km/h) 0 mm0 mm 20 °C 21.5 °C 22.3 °C 60000 m 0   0 cm 6 min 150.8 W/m² 1022.3 hPa
10:00 18.9 °C 14.4 °C 75 % 7 km/h (12 km/h) 0 mm0 mm 20 °C 21.5 °C 22.3 °C 60000 m 0   0 cm 6 min 149.2 W/m² 1022.3 hPa
09:54 18.6 °C 14.7 °C 78 % 8 km/h (11 km/h) 0 mm0 mm 20 °C 21.5 °C 22.3 °C 60000 m 0   0 cm 6 min 144.1 W/m² 1022.3 hPa
09:48 18.2 °C 14.7 °C 80 % 7 km/h (11 km/h) 0 mm0 mm 20 °C 21.5 °C 22.3 °C 60000 m 0   0 cm 6 min 132.9 W/m² 1022.2 hPa
09:42 17.7 °C 14.4 °C 81 % 5 km/h (11 km/h) 0 mm0 mm 19.9 °C 21.5 °C 22.3 °C 60000 m 0   0 cm 6 min 127.6 W/m² 1022.3 hPa
09:36 17.3 °C 14.9 °C 86 % 3 km/h (6 km/h) 0 mm0 mm 19.9 °C 21.6 °C 22.3 °C 60000 m 0   0 cm 6 min 120.4 W/m² 1022.4 hPa
09:30 16.8 °C 15.3 °C 91 % 3 km/h (6 km/h) 0 mm0 mm 19.9 °C 21.5 °C 22.3 °C 60000 m 0   0 cm 6 min 114.7 W/m² 1022.4 hPa
09:24 16.2 °C 15.1 °C 93 % 3 km/h (5 km/h) 0 mm0 mm 19.9 °C 21.6 °C 22.3 °C 60000 m 0   0 cm 6 min 102.7 W/m² 1022.4 hPa
09:18 16 °C 15.5 °C 97 % 2 km/h (5 km/h) 0 mm0 mm 19.9 °C 21.6 °C 22.3 °C 59970 m 0   0 cm 6 min 98.9 W/m² 1022.4 hPa
09:12 15.4 °C 15.1 °C 98 % 0 km/h (5 km/h) 0 mm0 mm 19.9 °C 21.6 °C 22.3 °C 59900 m 0   0 cm 6 min 92.3 W/m² 1022.4 hPa
09:06 15.2 °C 15 °C 99 % 0 km/h (4 km/h) 0 mm0 mm 19.9 °C 21.6 °C 22.3 °C 19980 m 0   0 cm 6 min 91.5 W/m² 1022.4 hPa
09:00 14.7 °C 14.5 °C 99 % 0 km/h (4 km/h) 0 mm0 mm 19.9 °C 21.7 °C 22.3 °C 19980 m 0   0 cm 6 min 83.7 W/m² 1022.3 hPa
08:54 14.3 °C 14.1 °C 99 % 3 km/h (6 km/h) 0 mm0 mm 19.9 °C 21.7 °C 22.3 °C 57330 m 0   0 cm 5 min 65.3 W/m² 1022.4 hPa
08:48 13.9 °C 13.7 °C 99 % 4 km/h (6 km/h) 0 mm0 mm 19.8 °C 21.7 °C 22.3 °C 53090 m 0   0 cm 0 min 17.1 W/m² 1022.4 hPa
08:42 13.9 °C 13.7 °C 99 % 3 km/h (6 km/h) 0 mm0 mm 19.9 °C 21.7 °C 22.3 °C 54880 m 0   0 cm 0 min 23.9 W/m² 1022.4 hPa
08:36 13.6 °C 13.4 °C 99 % 0 km/h (3 km/h) 0 mm0 mm 19.9 °C 21.7 °C 22.3 °C 55750 m 0   0 cm 0 min 24.1 W/m² 1022.5 hPa
08:30 13.3 °C 13.1 °C 99 % 0 km/h (3 km/h) 0 mm0 mm 19.9 °C 21.7 °C 22.3 °C 51900 m 0   0 cm 0 min 21.3 W/m² 1022.4 hPa
08:24 12.9 °C 12.7 °C 99 % 0 km/h (2 km/h) 0 mm0 mm 19.9 °C 21.8 °C 22.4 °C 51980 m 0   0 cm 0 min 19.1 W/m² 1022.4 hPa
08:18 12.7 °C 12.5 °C 99 % 0 km/h (2 km/h) 0 mm0 mm 19.9 °C 21.8 °C 22.3 °C 50610 m 0   0 cm 0 min 19.6 W/m² 1022.4 hPa
08:12 12.6 °C 12.4 °C 99 % 0 km/h (2 km/h) 0 mm0 mm 19.9 °C 21.8 °C 22.4 °C 19530 m 0   0 cm 1 min 19.1 W/m² 1022.3 hPa
08:06 12.3 °C 12.1 °C 99 % 0 km/h (3 km/h) 0 mm0 mm 20 °C 21.8 °C 22.4 °C 19090 m 0   0 cm 6 min 23.6 W/m² 1022.4 hPa
08:00 11.7 °C 11.4 °C 98 % 2 km/h (3 km/h) 0 mm0.2 mm 20 °C 21.9 °C 22.4 °C 19380 m 0   0 cm 6 min 21.2 W/m² 1022.3 hPa
07:54 11.6 °C 11.3 °C 98 % 3 km/h (4 km/h) 0 mm0 mm 20 °C 21.8 °C 22.4 °C 19590 m 0   0 cm 6 min 17.4 W/m² 1022.3 hPa
07:48 11.5 °C 11.2 °C 98 % 3 km/h (4 km/h) 0 mm0 mm 20 °C 21.9 °C 22.4 °C 19400 m 0   0 cm 6 min 11.9 W/m² 1022.2 hPa
07:42 11.3 °C 11 °C 98 % 3 km/h (5 km/h) 0 mm0 mm 20.1 °C 21.9 °C 22.4 °C 19180 m 0   0 cm 0 min 2.8 W/m² 1022.1 hPa
07:36 11.4 °C 11.1 °C 98 % 4 km/h (5 km/h) 0.2 mm0 mm 20.1 °C 21.9 °C 22.4 °C 18030 m 0   0 cm 0 min 0 W/m² 1022.1 hPa
07:30 11.4 °C 11.1 °C 98 % 4 km/h (5 km/h) 0 mm0 mm 20.2 °C 21.9 °C 22.4 °C 14120 m 0   0 cm 0 min 0 W/m² 1022.1 hPa
07:24 11.4 °C 11.1 °C 98 % 4 km/h (6 km/h) 0 mm0 mm 20.2 °C 22 °C 22.4 °C 7710 m 0   0 cm 0 min 0 W/m² 1022.1 hPa
07:18 11.4 °C 11.1 °C 98 % 5 km/h (6 km/h) 0 mm0 mm 20.2 °C 22 °C 22.4 °C 7700 m 0   0 cm 0 min 0 W/m² 1022.1 hPa
07:12 11.4 °C 11.1 °C 98 % 4 km/h (5 km/h) 0 mm0 mm 20.2 °C 22 °C 22.4 °C 16100 m 0   0 cm 0 min 0 W/m² 1022.1 hPa
07:06 11 °C 10.5 °C 97 % 4 km/h (5 km/h) 0 mm0 mm 20.3 °C 22 °C 22.4 °C 17220 m 0   0 cm 0 min 0 W/m² 1022 hPa
07:00 11 °C 10.5 °C 97 % 5 km/h (6 km/h) 0 mm0 mm 20.3 °C 22.1 °C 22.4 °C 18820 m 0   0 cm 0 min 0 W/m² 1022 hPa
06:54 11 °C 10.4 °C 96 % 3 km/h (6 km/h) 0 mm0 mm 20.3 °C 22.1 °C 22.4 °C 19240 m 0   0 cm 0 min 0 W/m² 1022 hPa
06:48 11.4 °C 10.9 °C 97 % 2 km/h (3 km/h) 0 mm0 mm 20.4 °C 22.1 °C 22.4 °C 50460 m 0   0 cm 0 min 0 W/m² 1021.9 hPa
06:42 11.4 °C 10.9 °C 97 % 2 km/h (4 km/h) 0 mm0 mm 20.4 °C 22.1 °C 22.4 °C 16440 m 0   0 cm 0 min 0 W/m² 1021.9 hPa
06:36 11.3 °C 10.7 °C 96 % 3 km/h (5 km/h) 0 mm0 mm 20.4 °C 22.2 °C 22.4 °C 15870 m 0   0 cm 0 min 0 W/m² 1021.9 hPa
06:30 11.9 °C 11.6 °C 98 % 3 km/h (5 km/h) 0 mm0 mm 20.4 °C 22.2 °C 22.4 °C 19120 m 0   0 cm 0 min 0 W/m² 1022.1 hPa
06:24 11.9 °C 11.6 °C 98 % 0 km/h (3 km/h) 0 mm0 mm 20.5 °C 22.2 °C 22.4 °C 19620 m 0   0 cm 0 min 0 W/m² 1022.1 hPa
06:18 11.7 °C 11.2 °C 97 % 0 km/h (2 km/h) 0 mm0 mm 20.5 °C 22.2 °C 22.5 °C 19450 m 0   0 cm 0 min 0 W/m² 1022.2 hPa
06:12 11.6 °C 11.1 °C 97 % 0 km/h (3 km/h) 0 mm0 mm 20.5 °C 22.2 °C 22.4 °C 19950 m 0   0 cm 0 min 0 W/m² 1022.1 hPa
06:06 11.6 °C 11.1 °C 97 % 0 km/h (3 km/h) 0 mm0 mm 20.6 °C 22.3 °C 22.4 °C 51970 m 0   0 cm 0 min 0 W/m² 1022.2 hPa
06:00 11.7 °C 11.2 °C 97 % 2 km/h (3 km/h) 0 mm0 mm 20.6 °C 22.3 °C 22.5 °C 16610 m 0   0 cm 0 min 0 W/m² 1022.2 hPa 7 Octas
05:54 11.6 °C 11.1 °C 97 % 3 km/h (4 km/h) 0 mm0 mm 20.6 °C 22.3 °C 22.4 °C 1610 m 0   0 cm 0 min 0 W/m² 1022.2 hPa
05:48 11.7 °C 11.1 °C 96 % 3 km/h (4 km/h) 0 mm0 mm 20.6 °C 22.3 °C 22.5 °C 2890 m 0   0 cm 0 min 0 W/m² 1022.2 hPa
05:42 11.7 °C 11.2 °C 97 % 2 km/h (3 km/h) 0 mm0 mm 20.7 °C 22.3 °C 22.5 °C 15390 m 0   0 cm 0 min 0 W/m² 1022.2 hPa
05:36 11.8 °C 11.3 °C 97 % 2 km/h (3 km/h) 0 mm0 mm 20.7 °C 22.4 °C 22.5 °C 17600 m 0   0 cm 0 min 0 W/m² 1022.2 hPa
05:30 12.1 °C 11.6 °C 97 % 2 km/h (4 km/h) 0 mm0 mm 20.7 °C 22.4 °C 22.4 °C 57120 m 0   0 cm 0 min 0 W/m² 1022.2 hPa
05:24 12.1 °C 11.6 °C 97 % 3 km/h (4 km/h) 0 mm0 mm 20.8 °C 22.4 °C 22.5 °C 19600 m 0   0 cm 0 min 0 W/m² 1022.2 hPa
05:18 12.3 °C 11.8 °C 97 % 3 km/h (4 km/h) 0 mm0 mm 20.8 °C 22.4 °C 22.5 °C 19600 m 0   0 cm 0 min 0 W/m² 1022.3 hPa
05:12 11.9 °C 11.3 °C 96 % 3 km/h (4 km/h) 0 mm0 mm 20.9 °C 22.4 °C 22.5 °C 59650 m 0   0 cm 0 min 0 W/m² 1022.4 hPa
05:06 12 °C 11.4 °C 96 % 4 km/h (5 km/h) 0 mm0 mm 20.9 °C 22.5 °C 22.5 °C 60000 m 0   0 cm 0 min 0 W/m² 1022.4 hPa
05:00 12 °C 11.4 °C 96 % 3 km/h (5 km/h) 0 mm0 mm 20.9 °C 22.5 °C 22.4 °C 19950 m 0   0 cm 0 min 0 W/m² 1022.4 hPa
04:54 12.2 °C 11.6 °C 96 % 3 km/h (3 km/h) 0 mm0 mm 21 °C 22.5 °C 22.5 °C 58140 m 0   0 cm 0 min 0 W/m² 1022.4 hPa
04:48 12.2 °C 11.6 °C 96 % 2 km/h (4 km/h) 0 mm0 mm 21 °C 22.5 °C 22.5 °C 19490 m 0   0 cm 0 min 0 W/m² 1022.4 hPa
04:42 12.6 °C 12 °C 96 % 2 km/h (3 km/h) 0 mm0 mm 21 °C 22.6 °C 22.5 °C 19630 m 0   0 cm 0 min 0 W/m² 1022.4 hPa
04:36 12.3 °C 11.5 °C 95 % 0 km/h (2 km/h) 0 mm0 mm 21.1 °C 22.6 °C 22.5 °C 19310 m 0   0 cm 0 min 0 W/m² 1022.5 hPa
04:30 12.5 °C 11.7 °C 95 % 0 km/h (3 km/h) 0 mm0 mm 21.1 °C 22.6 °C 22.5 °C 19540 m 0   0 cm 0 min 0 W/m² 1022.6 hPa
04:24 12.9 °C 12.3 °C 96 % 0 km/h (3 km/h) 0 mm0 mm 21.1 °C 22.6 °C 22.5 °C 57770 m 0   0 cm 0 min 0 W/m² 1022.6 hPa
04:18 12.4 °C 11.5 °C 94 % 0 km/h (4 km/h) 0 mm0 mm 21.2 °C 22.7 °C 22.5 °C 59210 m 0   0 cm 0 min 0 W/m² 1022.6 hPa
04:12 12.6 °C 11.8 °C 95 % 2 km/h (4 km/h) 0 mm0 mm 21.2 °C 22.7 °C 22.5 °C 59830 m 0   0 cm 0 min 0 W/m² 1022.7 hPa
04:06 12.8 °C 12 °C 95 % 0 km/h (3 km/h) 0 mm0 mm 21.3 °C 22.7 °C 22.5 °C 60000 m 0   0 cm 0 min 0 W/m² 1022.7 hPa
04:00 13 °C 12.4 °C 96 % 0 km/h (2 km/h) 0 mm0 mm 21.3 °C 22.7 °C 22.5 °C 59910 m 0   0 cm 0 min 0 W/m² 1022.8 hPa 6 Octas
03:54 12.8 °C 12 °C 95 % 0 km/h (2 km/h) 0 mm0 mm 21.3 °C 22.7 °C 22.5 °C 60000 m 0   0 cm 0 min 0 W/m² 1022.8 hPa
03:48 12.7 °C 11.8 °C 94 % 0 km/h (3 km/h) 0 mm0 mm 21.4 °C 22.7 °C 22.5 °C 58690 m 0   0 cm 0 min 0 W/m² 1022.9 hPa
03:42 12.9 °C 12.1 °C 95 % 0 km/h (3 km/h) 0 mm0 mm 21.4 °C 22.8 °C 22.5 °C 55130 m 0   0 cm 0 min 0 W/m² 1022.9 hPa
03:36 13 °C 12.2 °C 95 % 0 km/h (2 km/h) 0 mm0 mm 21.5 °C 22.8 °C 22.5 °C 56290 m 0   0 cm 0 min 0 W/m² 1022.9 hPa
03:30 12.8 °C 11.9 °C 94 % 0 km/h (4 km/h) 0 mm0 mm 21.5 °C 22.8 °C 22.5 °C 60000 m 0   0 cm 0 min 0 W/m² 1022.9 hPa
03:24 12.7 °C 11.4 °C 92 % 2 km/h (4 km/h) 0 mm0 mm 21.5 °C 22.9 °C 22.5 °C 60000 m 0   0 cm 0 min 0 W/m² 1023 hPa
03:18 12.9 °C 11.8 °C 93 % 0 km/h (3 km/h) 0 mm0 mm 21.6 °C 22.9 °C 22.5 °C 60000 m 0   0 cm 0 min 0 W/m² 1023 hPa
03:12 13.1 °C 12 °C 93 % 0 km/h (2 km/h) 0 mm0 mm 21.6 °C 22.9 °C 22.5 °C 60000 m 0   0 cm 0 min 0 W/m² 1023 hPa
03:06 13.3 °C 12.2 °C 93 % 2 km/h (3 km/h) 0 mm0 mm 21.6 °C 22.9 °C 22.5 °C 60000 m 0   0 cm 0 min 0 W/m² 1023 hPa
03:00 13.3 °C 12.2 °C 93 % 3 km/h (4 km/h) 0 mm0 mm 21.7 °C 22.9 °C 22.5 °C 58110 m 0   0 cm 0 min 0 W/m² 1023 hPa
02:54 13.5 °C 12.6 °C 94 % 3 km/h (4 km/h) 0 mm0 mm 21.7 °C 23 °C 22.5 °C 57220 m 0   0 cm 0 min 0 W/m² 1023.1 hPa
02:48 13.3 °C 12.2 °C 93 % 2 km/h (4 km/h) 0 mm0 mm 21.7 °C 23 °C 22.5 °C 59980 m 0   0 cm 0 min 0 W/m² 1023.1 hPa
02:42 13.2 °C 11.8 °C 91 % 2 km/h (4 km/h) 0 mm0 mm 21.8 °C 23 °C 22.5 °C 60000 m 0   0 cm 0 min 0 W/m² 1023.1 hPa
02:36 13.4 °C 12 °C 91 % 3 km/h (4 km/h) 0 mm0 mm 21.8 °C 23 °C 22.5 °C 16550 m 0   0 cm 0 min 0 W/m² 1023.1 hPa
02:30 13.5 °C 11.9 °C 90 % 4 km/h (5 km/h) 0 mm0 mm 21.9 °C 23.1 °C 22.5 °C 9290 m 0   0 cm 0 min 0 W/m² 1023.1 hPa
02:24 13.7 °C 12.3 °C 91 % 4 km/h (5 km/h) 0 mm0 mm 21.9 °C 23.1 °C 22.5 °C 10790 m 0   0 cm 0 min 0 W/m² 1023.1 hPa
02:18 13.6 °C 11.8 °C 89 % 4 km/h (5 km/h) 0 mm0 mm 21.9 °C 23.1 °C 22.5 °C 14690 m 0   0 cm 0 min 0 W/m² 1023.1 hPa
02:12 13.8 °C 12 °C 89 % 3 km/h (5 km/h) 0 mm0 mm 22 °C 23.1 °C 22.5 °C 8310 m 0   0 cm 0 min 0 W/m² 1023.1 hPa
02:06 14 °C 11.9 °C 87 % 3 km/h (4 km/h) 0 mm0 mm 22 °C 23.1 °C 22.5 °C 7300 m 0   0 cm 0 min 0 W/m² 1023.1 hPa
02:00 14.2 °C 12.2 °C 88 % 3 km/h (4 km/h) 0 mm0 mm 22.1 °C 23.1 °C 22.5 °C 59590 m 0   0 cm 0 min 0 W/m² 1023.1 hPa
01:54 14.4 °C 12.8 °C 90 % 4 km/h (4 km/h) 0 mm0 mm 22.2 °C 23.2 °C 22.5 °C 60000 m 0   0 cm 0 min 0 W/m² 1023.1 hPa
01:48 14.3 °C 12.3 °C 88 % 4 km/h (5 km/h) 0 mm0 mm 22.2 °C 23.2 °C 22.5 °C 60000 m 0   0 cm 0 min 0 W/m² 1023.1 hPa
01:42 14.4 °C 12.4 °C 88 % 3 km/h (5 km/h) 0 mm0 mm 22.3 °C 23.2 °C 22.5 °C 60000 m 0   0 cm 0 min 0 W/m² 1023.1 hPa
01:36 14.5 °C 12.5 °C 88 % 4 km/h (5 km/h) 0 mm0 mm 22.3 °C 23.2 °C 22.4 °C 47210 m 0   0 cm 0 min 0 W/m² 1023.1 hPa
01:30 14.5 °C 12.5 °C 88 % 4 km/h (7 km/h) 0 mm0 mm 22.3 °C 23.2 °C 22.5 °C 43710 m 0   0 cm 0 min 0 W/m² 1023.1 hPa
01:24 14.5 °C 12.4 °C 87 % 4 km/h (7 km/h) 0 mm0 mm 22.4 °C 23.3 °C 22.5 °C 17650 m 0   0 cm 0 min 0 W/m² 1023.1 hPa
01:18 14.8 °C 12.7 °C 87 % 4 km/h (6 km/h) 0 mm0 mm 22.4 °C 23.3 °C 22.5 °C 14510 m 0   0 cm 0 min 0 W/m² 1023.1 hPa
01:12 14.7 °C 12.4 °C 86 % 4 km/h (5 km/h) 0 mm0 mm 22.5 °C 23.3 °C 22.5 °C 16260 m 0   0 cm 0 min 0 W/m² 1023.1 hPa
01:06 14.9 °C 12.6 °C 86 % 3 km/h (5 km/h) 0 mm0 mm 22.5 °C 23.3 °C 22.5 °C 60000 m 0   0 cm 0 min 0 W/m² 1023.1 hPa
01:00 14.8 °C 12.5 °C 86 % 3 km/h (6 km/h) 0 mm0 mm 22.6 °C 23.3 °C 22.4 °C 60000 m 0   0 cm 0 min 0 W/m² 1023.1 hPa
00:54 14.8 °C 11.9 °C 83 % 3 km/h (6 km/h) 0 mm0 mm 22.6 °C 23.4 °C 22.4 °C 60000 m 0   0 cm 0 min 0 W/m² 1023.1 hPa
00:48 15 °C 12.3 °C 84 % 3 km/h (4 km/h) 0 mm0 mm 22.6 °C 23.4 °C 22.5 °C 60000 m 0   0 cm 0 min 0 W/m² 1023.1 hPa
00:42 15 °C 12.3 °C 84 % 4 km/h (7 km/h) 0 mm0 mm 22.7 °C 23.4 °C 22.4 °C 51420 m 0   0 cm 0 min 0 W/m² 1023.1 hPa
00:36 15.4 °C 12.3 °C 82 % 6 km/h (8 km/h) 0 mm0 mm 22.8 °C 23.4 °C 22.5 °C 19100 m 0   0 cm 0 min 0 W/m² 1023 hPa
00:30 15.5 °C 12.1 °C 80 % 7 km/h (8 km/h) 0 mm0 mm 22.8 °C 23.4 °C 22.4 °C 58680 m 0   0 cm 0 min 0 W/m² 1023 hPa
00:24 16.2 °C 12.7 °C 80 % 8 km/h (9 km/h) 0 mm0 mm 22.9 °C 23.5 °C 22.5 °C 60000 m 0   0 cm 0 min 0 W/m² 1022.9 hPa
00:18 16.2 °C 12.7 °C 80 % 8 km/h (9 km/h) 0 mm0 mm 22.9 °C 23.5 °C 22.4 °C 60000 m 0   0 cm 0 min 0 W/m² 1023 hPa
00:12 16.2 °C 12.4 °C 78 % 6 km/h (9 km/h) 0 mm0 mm 23 °C 23.5 °C 22.4 °C 17650 m 0   0 cm 0 min 0 W/m² 1023 hPa
00:06 16.4 °C 12.4 °C 77 % 5 km/h (8 km/h) 0 mm0 mm 23 °C 23.5 °C 22.4 °C 17650 m 0   0 cm 0 min 0 W/m² 1023 hPa
00:00 16.8 °C 12.3 °C 75 % 6 km/h (12 km/h) 0 mm0 mm 23.1 °C 23.6 °C 22.4 °C 55700 m 0   0 cm 0 min 0 W/m² 1023 hPa

Données via Météo-France

Relevés météo à Bergerac

Cette page rassemble les observations de la station de Bergerac : température, humidité, vent, précipitations et pression atmosphérique. Les graphiques facilitent le suivi de la journée, tandis que le tableau donne accès aux mesures horaires et infra-horaires disponibles.

Pour replacer ces mesures dans leur contexte, consultez la climatologie de Bergerac ainsi que ses normales et records. Retrouvez aussi la carte des observations météo en temps réel.